sensor_id;sensor_type;location;lat;lon;timestamp;temperature;humidity
23087;DHT22;11712;51.134;4.156;2022-07-10T00:00:31;15.50;99.90
23087;DHT22;11712;51.134;4.156;2022-07-10T00:02:57;15.50;99.90
23087;DHT22;11712;51.134;4.156;2022-07-10T00:05:23;15.60;99.90
23087;DHT22;11712;51.134;4.156;2022-07-10T00:07:50;15.70;99.90
23087;DHT22;11712;51.134;4.156;2022-07-10T00:10:20;15.70;99.90
23087;DHT22;11712;51.134;4.156;2022-07-10T00:12:46;15.60;99.90
23087;DHT22;11712;51.134;4.156;2022-07-10T00:15:12;15.40;99.90
23087;DHT22;11712;51.134;4.156;2022-07-10T00:17:38;15.30;99.90
23087;DHT22;11712;51.134;4.156;2022-07-10T00:20:06;15.10;99.90
23087;DHT22;11712;51.134;4.156;2022-07-10T00:22:36;15.00;99.90
23087;DHT22;11712;51.134;4.156;2022-07-10T00:25:02;14.90;99.90
23087;DHT22;11712;51.134;4.156;2022-07-10T00:27:28;14.80;99.90
23087;DHT22;11712;51.134;4.156;2022-07-10T00:29:54;14.50;99.90
23087;DHT22;11712;51.134;4.156;2022-07-10T00:32:19;14.50;99.90
23087;DHT22;11712;51.134;4.156;2022-07-10T00:34:45;14.40;99.90
23087;DHT22;11712;51.134;4.156;2022-07-10T00:37:11;14.30;99.90
23087;DHT22;11712;51.134;4.156;2022-07-10T00:39:37;14.30;99.90
23087;DHT22;11712;51.134;4.156;2022-07-10T00:42:13;14.30;99.90
23087;DHT22;11712;51.134;4.156;2022-07-10T00:44:42;14.30;99.90
23087;DHT22;11712;51.134;4.156;2022-07-10T00:47:09;14.20;99.90
23087;DHT22;11712;51.134;4.156;2022-07-10T00:49:37;14.20;99.90
23087;DHT22;11712;51.134;4.156;2022-07-10T00:52:07;14.10;99.90
23087;DHT22;11712;51.134;4.156;2022-07-10T00:54:34;13.90;99.90
23087;DHT22;11712;51.134;4.156;2022-07-10T00:57:03;13.90;99.90
23087;DHT22;11712;51.134;4.156;2022-07-10T00:59:29;13.80;99.90
23087;DHT22;11712;51.134;4.156;2022-07-10T01:01:55;13.80;99.90
23087;DHT22;11712;51.134;4.156;2022-07-10T01:04:21;13.80;99.90
23087;DHT22;11712;51.134;4.156;2022-07-10T01:06:46;13.70;99.90
23087;DHT22;11712;51.134;4.156;2022-07-10T01:09:12;13.60;99.90
23087;DHT22;11712;51.134;4.156;2022-07-10T01:11:38;13.60;99.90
23087;DHT22;11712;51.134;4.156;2022-07-10T01:14:04;13.70;99.90
23087;DHT22;11712;51.134;4.156;2022-07-10T01:16:31;13.80;99.90
23087;DHT22;11712;51.134;4.156;2022-07-10T01:18:57;13.70;99.90
23087;DHT22;11712;51.134;4.156;2022-07-10T01:21:34;13.70;99.90
23087;DHT22;11712;51.134;4.156;2022-07-10T01:24:03;13.70;99.90
23087;DHT22;11712;51.134;4.156;2022-07-10T01:26:29;13.60;99.90
23087;DHT22;11712;51.134;4.156;2022-07-10T01:28:55;13.50;99.90
23087;DHT22;11712;51.134;4.156;2022-07-10T01:31:27;13.50;99.90
23087;DHT22;11712;51.134;4.156;2022-07-10T01:33:54;13.50;99.90
23087;DHT22;11712;51.134;4.156;2022-07-10T01:36:23;13.50;99.90
23087;DHT22;11712;51.134;4.156;2022-07-10T01:38:52;13.50;99.90
23087;DHT22;11712;51.134;4.156;2022-07-10T01:41:17;13.50;99.90
23087;DHT22;11712;51.134;4.156;2022-07-10T01:43:43;13.50;99.90
23087;DHT22;11712;51.134;4.156;2022-07-10T01:46:11;13.40;99.90
23087;DHT22;11712;51.134;4.156;2022-07-10T01:48:38;13.30;99.90
23087;DHT22;11712;51.134;4.156;2022-07-10T01:51:05;13.30;99.90
23087;DHT22;11712;51.134;4.156;2022-07-10T01:53:30;13.20;99.90
23087;DHT22;11712;51.134;4.156;2022-07-10T01:55:56;13.10;99.90
23087;DHT22;11712;51.134;4.156;2022-07-10T01:58:22;12.80;99.90
23087;DHT22;11712;51.134;4.156;2022-07-10T02:00:48;12.80;99.90
23087;DHT22;11712;51.134;4.156;2022-07-10T02:03:14;12.70;99.90
23087;DHT22;11712;51.134;4.156;2022-07-10T02:05:58;12.70;99.90
23087;DHT22;11712;51.134;4.156;2022-07-10T02:08:24;12.80;99.90
23087;DHT22;11712;51.134;4.156;2022-07-10T02:10:49;12.80;99.90
23087;DHT22;11712;51.134;4.156;2022-07-10T02:13:15;12.80;99.90
23087;DHT22;11712;51.134;4.156;2022-07-10T02:15:43;12.80;99.90
23087;DHT22;11712;51.134;4.156;2022-07-10T02:18:09;12.80;99.90
23087;DHT22;11712;51.134;4.156;2022-07-10T02:20:35;12.80;99.90
23087;DHT22;11712;51.134;4.156;2022-07-10T02:23:02;12.90;99.90
23087;DHT22;11712;51.134;4.156;2022-07-10T02:25:28;13.00;99.90
23087;DHT22;11712;51.134;4.156;2022-07-10T02:27:54;13.10;99.90
23087;DHT22;11712;51.134;4.156;2022-07-10T02:30:19;13.20;99.90
23087;DHT22;11712;51.134;4.156;2022-07-10T02:32:45;13.30;99.90
23087;DHT22;11712;51.134;4.156;2022-07-10T02:35:11;13.40;99.90
23087;DHT22;11712;51.134;4.156;2022-07-10T02:37:36;13.60;99.90
23087;DHT22;11712;51.134;4.156;2022-07-10T02:40:02;13.50;99.90
23087;DHT22;11712;51.134;4.156;2022-07-10T02:42:28;13.50;99.90
23087;DHT22;11712;51.134;4.156;2022-07-10T02:44:53;13.50;99.90
23087;DHT22;11712;51.134;4.156;2022-07-10T02:47:19;13.60;99.90
23087;DHT22;11712;51.134;4.156;2022-07-10T02:49:45;13.60;99.90
23087;DHT22;11712;51.134;4.156;2022-07-10T02:52:10;13.80;99.90
23087;DHT22;11712;51.134;4.156;2022-07-10T02:54:37;13.80;99.90
23087;DHT22;11712;51.134;4.156;2022-07-10T02:57:03;13.70;99.90
23087;DHT22;11712;51.134;4.156;2022-07-10T02:59:29;13.70;99.90
23087;DHT22;11712;51.134;4.156;2022-07-10T03:01:54;13.60;99.90
23087;DHT22;11712;51.134;4.156;2022-07-10T03:04:20;13.50;99.90
23087;DHT22;11712;51.134;4.156;2022-07-10T03:06:46;13.40;99.90
23087;DHT22;11712;51.134;4.156;2022-07-10T03:09:12;13.40;99.90
23087;DHT22;11712;51.134;4.156;2022-07-10T03:11:37;13.50;99.90
23087;DHT22;11712;51.134;4.156;2022-07-10T03:14:03;13.30;99.90
23087;DHT22;11712;51.134;4.156;2022-07-10T03:16:29;13.20;99.90
23087;DHT22;11712;51.134;4.156;2022-07-10T03:18:55;13.20;99.90
23087;DHT22;11712;51.134;4.156;2022-07-10T03:21:20;13.10;99.90
23087;DHT22;11712;51.134;4.156;2022-07-10T03:23:46;13.10;99.90
23087;DHT22;11712;51.134;4.156;2022-07-10T03:26:12;13.00;99.90
23087;DHT22;11712;51.134;4.156;2022-07-10T03:28:37;12.80;99.90
23087;DHT22;11712;51.134;4.156;2022-07-10T03:31:03;12.60;99.90
23087;DHT22;11712;51.134;4.156;2022-07-10T03:33:29;12.60;99.90
23087;DHT22;11712;51.134;4.156;2022-07-10T03:35:54;12.40;99.90
23087;DHT22;11712;51.134;4.156;2022-07-10T03:38:20;12.00;99.90
23087;DHT22;11712;51.134;4.156;2022-07-10T03:40:46;12.10;99.90
23087;DHT22;11712;51.134;4.156;2022-07-10T03:43:14;12.10;99.90
23087;DHT22;11712;51.134;4.156;2022-07-10T03:45:40;12.30;99.90
23087;DHT22;11712;51.134;4.156;2022-07-10T03:48:06;12.40;99.90
23087;DHT22;11712;51.134;4.156;2022-07-10T03:50:32;12.40;99.90
23087;DHT22;11712;51.134;4.156;2022-07-10T03:52:58;12.40;99.90
23087;DHT22;11712;51.134;4.156;2022-07-10T03:55:24;12.50;99.90
23087;DHT22;11712;51.134;4.156;2022-07-10T03:57:50;12.70;99.90
23087;DHT22;11712;51.134;4.156;2022-07-10T04:00:22;13.00;99.90
23087;DHT22;11712;51.134;4.156;2022-07-10T04:02:53;13.10;99.90
23087;DHT22;11712;51.134;4.156;2022-07-10T04:05:19;13.20;99.90
23087;DHT22;11712;51.134;4.156;2022-07-10T04:07:45;13.30;99.90
23087;DHT22;11712;51.134;4.156;2022-07-10T04:10:10;13.50;99.90
23087;DHT22;11712;51.134;4.156;2022-07-10T04:12:36;13.60;99.90
23087;DHT22;11712;51.134;4.156;2022-07-10T04:15:02;13.70;99.90
23087;DHT22;11712;51.134;4.156;2022-07-10T04:17:27;13.80;99.90
23087;DHT22;11712;51.134;4.156;2022-07-10T04:19:54;13.70;99.90
23087;DHT22;11712;51.134;4.156;2022-07-10T04:22:20;13.70;99.90
23087;DHT22;11712;51.134;4.156;2022-07-10T04:24:46;13.80;99.90
23087;DHT22;11712;51.134;4.156;2022-07-10T04:27:11;13.90;99.90
23087;DHT22;11712;51.134;4.156;2022-07-10T04:29:37;14.00;99.90
23087;DHT22;11712;51.134;4.156;2022-07-10T04:32:03;14.20;99.90
23087;DHT22;11712;51.134;4.156;2022-07-10T04:34:29;14.40;99.90
23087;DHT22;11712;51.134;4.156;2022-07-10T04:36:54;14.50;99.90
23087;DHT22;11712;51.134;4.156;2022-07-10T04:39:20;14.60;99.90
23087;DHT22;11712;51.134;4.156;2022-07-10T04:41:47;14.70;99.90
23087;DHT22;11712;51.134;4.156;2022-07-10T04:44:12;14.80;99.90
23087;DHT22;11712;51.134;4.156;2022-07-10T04:46:38;14.90;99.90
23087;DHT22;11712;51.134;4.156;2022-07-10T04:49:04;14.90;99.90
23087;DHT22;11712;51.134;4.156;2022-07-10T04:51:29;15.10;99.90
23087;DHT22;11712;51.134;4.156;2022-07-10T04:53:56;15.20;99.90
23087;DHT22;11712;51.134;4.156;2022-07-10T04:56:21;15.00;99.90
23087;DHT22;11712;51.134;4.156;2022-07-10T04:58:47;15.20;99.90
23087;DHT22;11712;51.134;4.156;2022-07-10T05:01:13;15.30;99.90
23087;DHT22;11712;51.134;4.156;2022-07-10T05:03:39;15.50;99.90
23087;DHT22;11712;51.134;4.156;2022-07-10T05:06:05;15.70;99.90
23087;DHT22;11712;51.134;4.156;2022-07-10T05:08:30;15.70;99.90
23087;DHT22;11712;51.134;4.156;2022-07-10T05:10:56;15.90;99.90
23087;DHT22;11712;51.134;4.156;2022-07-10T05:13:21;16.00;99.90
23087;DHT22;11712;51.134;4.156;2022-07-10T05:15:47;16.00;99.90
23087;DHT22;11712;51.134;4.156;2022-07-10T05:18:13;16.00;99.90
23087;DHT22;11712;51.134;4.156;2022-07-10T05:20:38;15.90;99.90
23087;DHT22;11712;51.134;4.156;2022-07-10T05:23:08;15.80;99.90
23087;DHT22;11712;51.134;4.156;2022-07-10T05:25:33;15.90;99.90
23087;DHT22;11712;51.134;4.156;2022-07-10T05:27:59;15.90;99.90
23087;DHT22;11712;51.134;4.156;2022-07-10T05:30:25;16.00;99.90
23087;DHT22;11712;51.134;4.156;2022-07-10T05:32:50;16.10;99.90
23087;DHT22;11712;51.134;4.156;2022-07-10T05:35:16;16.20;99.90
23087;DHT22;11712;51.134;4.156;2022-07-10T05:37:42;16.20;99.90
23087;DHT22;11712;51.134;4.156;2022-07-10T05:40:09;16.30;99.90
23087;DHT22;11712;51.134;4.156;2022-07-10T05:42:35;16.40;99.90
23087;DHT22;11712;51.134;4.156;2022-07-10T05:45:00;16.40;99.90
23087;DHT22;11712;51.134;4.156;2022-07-10T05:47:26;16.40;99.90
23087;DHT22;11712;51.134;4.156;2022-07-10T05:49:52;16.60;99.90
23087;DHT22;11712;51.134;4.156;2022-07-10T05:52:17;16.90;99.90
23087;DHT22;11712;51.134;4.156;2022-07-10T05:54:43;16.90;99.90
23087;DHT22;11712;51.134;4.156;2022-07-10T05:57:09;17.00;99.90
23087;DHT22;11712;51.134;4.156;2022-07-10T05:59:34;16.90;99.90
23087;DHT22;11712;51.134;4.156;2022-07-10T06:02:01;16.50;99.90
23087;DHT22;11712;51.134;4.156;2022-07-10T06:04:27;16.80;99.90
23087;DHT22;11712;51.134;4.156;2022-07-10T06:06:53;17.00;99.90
23087;DHT22;11712;51.134;4.156;2022-07-10T06:09:19;17.30;99.90
23087;DHT22;11712;51.134;4.156;2022-07-10T06:11:44;17.50;99.90
23087;DHT22;11712;51.134;4.156;2022-07-10T06:14:14;17.70;99.90
23087;DHT22;11712;51.134;4.156;2022-07-10T06:16:39;17.60;99.90
23087;DHT22;11712;51.134;4.156;2022-07-10T06:19:05;17.40;99.90
23087;DHT22;11712;51.134;4.156;2022-07-10T06:21:31;17.60;99.90
23087;DHT22;11712;51.134;4.156;2022-07-10T06:23:57;17.70;99.90
23087;DHT22;11712;51.134;4.156;2022-07-10T06:26:23;17.30;99.90
23087;DHT22;11712;51.134;4.156;2022-07-10T06:28:48;17.60;99.90
23087;DHT22;11712;51.134;4.156;2022-07-10T06:31:14;17.70;99.90
23087;DHT22;11712;51.134;4.156;2022-07-10T06:33:40;18.10;99.90
23087;DHT22;11712;51.134;4.156;2022-07-10T06:36:06;18.30;99.90
23087;DHT22;11712;51.134;4.156;2022-07-10T06:38:32;18.00;99.90
23087;DHT22;11712;51.134;4.156;2022-07-10T06:40:57;18.30;99.90
23087;DHT22;11712;51.134;4.156;2022-07-10T06:43:23;18.20;99.90
23087;DHT22;11712;51.134;4.156;2022-07-10T06:45:49;18.40;99.90
23087;DHT22;11712;51.134;4.156;2022-07-10T06:48:15;18.60;99.90
23087;DHT22;11712;51.134;4.156;2022-07-10T06:50:41;18.30;99.90
23087;DHT22;11712;51.134;4.156;2022-07-10T06:53:07;17.70;99.90
23087;DHT22;11712;51.134;4.156;2022-07-10T06:55:33;17.40;99.90
23087;DHT22;11712;51.134;4.156;2022-07-10T06:57:59;17.50;99.90
23087;DHT22;11712;51.134;4.156;2022-07-10T07:00:25;17.90;99.90
23087;DHT22;11712;51.134;4.156;2022-07-10T07:02:51;18.00;99.90
23087;DHT22;11712;51.134;4.156;2022-07-10T07:05:17;18.30;99.90
23087;DHT22;11712;51.134;4.156;2022-07-10T07:07:43;18.60;99.90
23087;DHT22;11712;51.134;4.156;2022-07-10T07:10:10;18.40;99.90
23087;DHT22;11712;51.134;4.156;2022-07-10T07:12:36;18.20;99.90
23087;DHT22;11712;51.134;4.156;2022-07-10T07:15:02;17.70;99.90
23087;DHT22;11712;51.134;4.156;2022-07-10T07:17:28;17.90;99.90
23087;DHT22;11712;51.134;4.156;2022-07-10T07:20:00;17.80;99.90
23087;DHT22;11712;51.134;4.156;2022-07-10T07:22:45;17.90;99.90
23087;DHT22;11712;51.134;4.156;2022-07-10T07:25:29;18.20;99.90
23087;DHT22;11712;51.134;4.156;2022-07-10T07:27:55;18.10;99.90
23087;DHT22;11712;51.134;4.156;2022-07-10T07:30:21;18.40;99.90
23087;DHT22;11712;51.134;4.156;2022-07-10T07:32:47;18.70;99.90
23087;DHT22;11712;51.134;4.156;2022-07-10T07:35:14;18.60;99.90
23087;DHT22;11712;51.134;4.156;2022-07-10T07:37:42;18.80;99.90
23087;DHT22;11712;51.134;4.156;2022-07-10T07:40:10;18.90;99.90
23087;DHT22;11712;51.134;4.156;2022-07-10T07:42:37;19.10;99.90
23087;DHT22;11712;51.134;4.156;2022-07-10T07:45:03;18.80;99.90
23087;DHT22;11712;51.134;4.156;2022-07-10T07:47:30;19.10;99.90
23087;DHT22;11712;51.134;4.156;2022-07-10T07:49:56;18.90;99.90
23087;DHT22;11712;51.134;4.156;2022-07-10T07:52:21;19.00;99.90
23087;DHT22;11712;51.134;4.156;2022-07-10T07:54:48;19.00;99.90
23087;DHT22;11712;51.134;4.156;2022-07-10T07:57:14;19.00;99.90
23087;DHT22;11712;51.134;4.156;2022-07-10T07:59:40;19.20;99.90
23087;DHT22;11712;51.134;4.156;2022-07-10T08:02:06;19.50;99.90
23087;DHT22;11712;51.134;4.156;2022-07-10T08:04:32;19.70;99.90
23087;DHT22;11712;51.134;4.156;2022-07-10T08:06:57;19.80;99.90
23087;DHT22;11712;51.134;4.156;2022-07-10T08:09:23;19.80;99.90
23087;DHT22;11712;51.134;4.156;2022-07-10T08:11:49;19.60;99.90
23087;DHT22;11712;51.134;4.156;2022-07-10T08:14:14;19.30;99.90
23087;DHT22;11712;51.134;4.156;2022-07-10T08:16:40;19.60;99.90
23087;DHT22;11712;51.134;4.156;2022-07-10T08:19:06;20.00;99.90
23087;DHT22;11712;51.134;4.156;2022-07-10T08:21:32;20.40;99.90
23087;DHT22;11712;51.134;4.156;2022-07-10T08:23:59;20.90;99.90
23087;DHT22;11712;51.134;4.156;2022-07-10T08:26:25;20.20;99.90
23087;DHT22;11712;51.134;4.156;2022-07-10T08:28:50;20.30;99.90
23087;DHT22;11712;51.134;4.156;2022-07-10T08:31:16;21.00;99.90
23087;DHT22;11712;51.134;4.156;2022-07-10T08:33:42;21.30;99.90
23087;DHT22;11712;51.134;4.156;2022-07-10T08:36:08;21.10;99.90
23087;DHT22;11712;51.134;4.156;2022-07-10T08:38:33;21.20;99.90
23087;DHT22;11712;51.134;4.156;2022-07-10T08:41:00;20.50;99.90
23087;DHT22;11712;51.134;4.156;2022-07-10T08:43:28;20.70;99.90
23087;DHT22;11712;51.134;4.156;2022-07-10T08:45:54;20.70;99.90
23087;DHT22;11712;51.134;4.156;2022-07-10T08:48:23;20.60;99.90
23087;DHT22;11712;51.134;4.156;2022-07-10T08:50:52;20.40;99.90
23087;DHT22;11712;51.134;4.156;2022-07-10T08:53:30;20.80;99.90
23087;DHT22;11712;51.134;4.156;2022-07-10T08:55:57;20.40;99.90
23087;DHT22;11712;51.134;4.156;2022-07-10T08:58:24;20.10;99.90
23087;DHT22;11712;51.134;4.156;2022-07-10T09:00:50;20.30;99.90
23087;DHT22;11712;51.134;4.156;2022-07-10T09:03:15;19.90;99.90
23087;DHT22;11712;51.134;4.156;2022-07-10T09:05:41;20.10;99.90
23087;DHT22;11712;51.134;4.156;2022-07-10T09:08:27;20.20;99.90
23087;DHT22;11712;51.134;4.156;2022-07-10T09:11:17;20.90;99.90
23087;DHT22;11712;51.134;4.156;2022-07-10T09:13:50;21.40;99.90
23087;DHT22;11712;51.134;4.156;2022-07-10T09:16:32;21.40;99.90
23087;DHT22;11712;51.134;4.156;2022-07-10T09:21:44;22.10;99.90
23087;DHT22;11712;51.134;4.156;2022-07-10T09:24:10;21.90;99.90
23087;DHT22;11712;51.134;4.156;2022-07-10T09:26:40;21.50;99.90
23087;DHT22;11712;51.134;4.156;2022-07-10T09:31:55;21.30;99.90
23087;DHT22;11712;51.134;4.156;2022-07-10T09:34:40;21.20;99.90
23087;DHT22;11712;51.134;4.156;2022-07-10T09:42:34;22.30;99.90
23087;DHT22;11712;51.134;4.156;2022-07-10T09:47:39;22.40;99.90
23087;DHT22;11712;51.134;4.156;2022-07-10T09:52:58;22.60;99.90
23087;DHT22;11712;51.134;4.156;2022-07-10T09:55:27;22.90;99.90
23087;DHT22;11712;51.134;4.156;2022-07-10T09:58:15;23.10;99.90
23087;DHT22;11712;51.134;4.156;2022-07-10T10:00:41;22.70;99.90
23087;DHT22;11712;51.134;4.156;2022-07-10T10:03:09;21.80;99.90
23087;DHT22;11712;51.134;4.156;2022-07-10T10:05:41;21.90;99.90
23087;DHT22;11712;51.134;4.156;2022-07-10T10:10:57;22.50;99.90
23087;DHT22;11712;51.134;4.156;2022-07-10T10:13:25;22.70;99.90
23087;DHT22;11712;51.134;4.156;2022-07-10T10:15:54;22.60;99.90
23087;DHT22;11712;51.134;4.156;2022-07-10T10:18:23;22.30;99.90
23087;DHT22;11712;51.134;4.156;2022-07-10T10:20:50;22.30;99.90
23087;DHT22;11712;51.134;4.156;2022-07-10T10:23:19;22.10;99.90
23087;DHT22;11712;51.134;4.156;2022-07-10T10:25:49;22.30;99.90
23087;DHT22;11712;51.134;4.156;2022-07-10T10:28:17;22.40;99.90
23087;DHT22;11712;51.134;4.156;2022-07-10T10:30:45;22.30;99.90
23087;DHT22;11712;51.134;4.156;2022-07-10T10:36:01;23.50;99.90
23087;DHT22;11712;51.134;4.156;2022-07-10T10:41:23;23.80;99.90
23087;DHT22;11712;51.134;4.156;2022-07-10T10:47:03;23.20;99.90
23087;DHT22;11712;51.134;4.156;2022-07-10T10:49:55;23.50;99.90
23087;DHT22;11712;51.134;4.156;2022-07-10T10:52:23;23.40;99.90
23087;DHT22;11712;51.134;4.156;2022-07-10T10:59:58;22.70;99.90
23087;DHT22;11712;51.134;4.156;2022-07-10T11:02:32;22.60;99.90
23087;DHT22;11712;51.134;4.156;2022-07-10T11:08:02;23.80;99.90
23087;DHT22;11712;51.134;4.156;2022-07-10T11:10:28;24.30;99.90
23087;DHT22;11712;51.134;4.156;2022-07-10T11:12:58;24.10;99.90
23087;DHT22;11712;51.134;4.156;2022-07-10T11:15:25;24.20;99.90
23087;DHT22;11712;51.134;4.156;2022-07-10T11:17:52;23.80;99.90
23087;DHT22;11712;51.134;4.156;2022-07-10T11:20:18;23.10;99.90
23087;DHT22;11712;51.134;4.156;2022-07-10T11:22:57;23.10;99.90
23087;DHT22;11712;51.134;4.156;2022-07-10T11:25:45;23.80;99.90
23087;DHT22;11712;51.134;4.156;2022-07-10T11:28:22;24.30;99.90
23087;DHT22;11712;51.134;4.156;2022-07-10T11:30:54;24.80;99.90
23087;DHT22;11712;51.134;4.156;2022-07-10T11:33:21;24.70;99.90
23087;DHT22;11712;51.134;4.156;2022-07-10T11:35:49;24.10;99.90
23087;DHT22;11712;51.134;4.156;2022-07-10T11:38:23;24.00;99.90
23087;DHT22;11712;51.134;4.156;2022-07-10T11:40:49;23.70;99.90
23087;DHT22;11712;51.134;4.156;2022-07-10T11:43:15;23.70;99.90
23087;DHT22;11712;51.134;4.156;2022-07-10T11:45:44;23.50;99.90
23087;DHT22;11712;51.134;4.156;2022-07-10T11:48:20;23.50;99.90
23087;DHT22;11712;51.134;4.156;2022-07-10T11:50:47;23.30;99.90
23087;DHT22;11712;51.134;4.156;2022-07-10T11:53:13;23.70;99.90
23087;DHT22;11712;51.134;4.156;2022-07-10T11:55:39;24.40;99.90
23087;DHT22;11712;51.134;4.156;2022-07-10T11:58:18;23.40;99.90
23087;DHT22;11712;51.134;4.156;2022-07-10T12:00:56;23.30;99.90
23087;DHT22;11712;51.134;4.156;2022-07-10T12:03:23;22.80;99.90
23087;DHT22;11712;51.134;4.156;2022-07-10T12:05:48;23.20;99.90
23087;DHT22;11712;51.134;4.156;2022-07-10T12:08:16;23.30;99.90
23087;DHT22;11712;51.134;4.156;2022-07-10T12:10:42;23.40;99.90
23087;DHT22;11712;51.134;4.156;2022-07-10T12:13:15;24.40;99.90
23087;DHT22;11712;51.134;4.156;2022-07-10T12:15:45;24.90;99.90
23087;DHT22;11712;51.134;4.156;2022-07-10T12:18:19;24.10;99.90
23087;DHT22;11712;51.134;4.156;2022-07-10T12:20:46;24.70;99.90
23087;DHT22;11712;51.134;4.156;2022-07-10T12:23:15;25.20;99.90
23087;DHT22;11712;51.134;4.156;2022-07-10T12:25:46;25.50;99.90
23087;DHT22;11712;51.134;4.156;2022-07-10T12:28:14;25.60;99.90
23087;DHT22;11712;51.134;4.156;2022-07-10T12:30:43;25.00;99.90
23087;DHT22;11712;51.134;4.156;2022-07-10T12:33:23;24.10;99.90
23087;DHT22;11712;51.134;4.156;2022-07-10T12:38:28;24.00;99.90
23087;DHT22;11712;51.134;4.156;2022-07-10T12:41:12;24.70;99.90
23087;DHT22;11712;51.134;4.156;2022-07-10T12:43:39;25.00;99.90
23087;DHT22;11712;51.134;4.156;2022-07-10T12:46:09;25.40;99.90
23087;DHT22;11712;51.134;4.156;2022-07-10T12:48:35;25.40;99.90
23087;DHT22;11712;51.134;4.156;2022-07-10T12:51:20;25.40;99.90
23087;DHT22;11712;51.134;4.156;2022-07-10T12:53:46;25.30;99.90
23087;DHT22;11712;51.134;4.156;2022-07-10T12:56:36;24.10;99.90
23087;DHT22;11712;51.134;4.156;2022-07-10T12:59:04;23.70;99.90
23087;DHT22;11712;51.134;4.156;2022-07-10T13:01:43;24.30;99.90
23087;DHT22;11712;51.134;4.156;2022-07-10T13:04:10;24.60;99.90
23087;DHT22;11712;51.134;4.156;2022-07-10T13:06:37;24.50;99.90
23087;DHT22;11712;51.134;4.156;2022-07-10T13:09:18;24.60;99.90
23087;DHT22;11712;51.134;4.156;2022-07-10T13:11:44;24.00;99.90
23087;DHT22;11712;51.134;4.156;2022-07-10T13:14:10;23.90;99.90
23087;DHT22;11712;51.134;4.156;2022-07-10T13:16:35;24.50;99.90
23087;DHT22;11712;51.134;4.156;2022-07-10T13:19:01;24.90;99.90
23087;DHT22;11712;51.134;4.156;2022-07-10T13:21:27;24.30;99.90
23087;DHT22;11712;51.134;4.156;2022-07-10T13:23:52;23.90;99.90
23087;DHT22;11712;51.134;4.156;2022-07-10T13:26:18;24.40;99.90
23087;DHT22;11712;51.134;4.156;2022-07-10T13:28:46;24.80;99.90
23087;DHT22;11712;51.134;4.156;2022-07-10T13:31:12;25.20;99.90
23087;DHT22;11712;51.134;4.156;2022-07-10T13:33:38;25.30;99.90
23087;DHT22;11712;51.134;4.156;2022-07-10T13:36:04;24.60;99.90
23087;DHT22;11712;51.134;4.156;2022-07-10T13:38:30;24.40;99.90
23087;DHT22;11712;51.134;4.156;2022-07-10T13:40:57;24.40;99.90
23087;DHT22;11712;51.134;4.156;2022-07-10T13:43:23;24.70;99.90
23087;DHT22;11712;51.134;4.156;2022-07-10T13:45:58;24.60;99.90
23087;DHT22;11712;51.134;4.156;2022-07-10T13:48:25;24.40;99.90
23087;DHT22;11712;51.134;4.156;2022-07-10T13:50:53;23.90;99.90
23087;DHT22;11712;51.134;4.156;2022-07-10T13:53:20;24.10;99.90
23087;DHT22;11712;51.134;4.156;2022-07-10T13:55:46;24.20;99.90
23087;DHT22;11712;51.134;4.156;2022-07-10T13:58:13;24.40;99.90
23087;DHT22;11712;51.134;4.156;2022-07-10T14:00:39;24.50;99.90
23087;DHT22;11712;51.134;4.156;2022-07-10T14:03:05;25.00;99.90
23087;DHT22;11712;51.134;4.156;2022-07-10T14:05:31;25.60;99.90
23087;DHT22;11712;51.134;4.156;2022-07-10T14:07:58;25.90;99.90
23087;DHT22;11712;51.134;4.156;2022-07-10T14:10:24;26.00;99.90
23087;DHT22;11712;51.134;4.156;2022-07-10T14:12:51;25.90;99.90
23087;DHT22;11712;51.134;4.156;2022-07-10T14:15:17;26.10;99.90
23087;DHT22;11712;51.134;4.156;2022-07-10T14:17:43;25.60;99.90
23087;DHT22;11712;51.134;4.156;2022-07-10T14:20:09;26.60;99.90
23087;DHT22;11712;51.134;4.156;2022-07-10T14:22:36;26.50;99.90
23087;DHT22;11712;51.134;4.156;2022-07-10T14:25:02;27.60;99.90
23087;DHT22;11712;51.134;4.156;2022-07-10T14:27:28;28.70;99.90
23087;DHT22;11712;51.134;4.156;2022-07-10T14:29:54;28.50;99.90
23087;DHT22;11712;51.134;4.156;2022-07-10T14:32:20;27.70;99.90
23087;DHT22;11712;51.134;4.156;2022-07-10T14:34:46;27.40;99.90
23087;DHT22;11712;51.134;4.156;2022-07-10T14:37:11;28.30;99.90
23087;DHT22;11712;51.134;4.156;2022-07-10T14:39:37;28.30;99.90
23087;DHT22;11712;51.134;4.156;2022-07-10T14:42:03;28.20;99.90
23087;DHT22;11712;51.134;4.156;2022-07-10T14:44:32;28.60;99.90
23087;DHT22;11712;51.134;4.156;2022-07-10T14:46:58;29.10;99.90
23087;DHT22;11712;51.134;4.156;2022-07-10T14:49:24;29.30;99.90
23087;DHT22;11712;51.134;4.156;2022-07-10T14:51:49;29.70;99.90
23087;DHT22;11712;51.134;4.156;2022-07-10T14:54:15;30.50;99.90
23087;DHT22;11712;51.134;4.156;2022-07-10T14:56:41;30.80;99.90
23087;DHT22;11712;51.134;4.156;2022-07-10T14:59:08;30.30;99.90
23087;DHT22;11712;51.134;4.156;2022-07-10T15:01:34;29.90;99.90
23087;DHT22;11712;51.134;4.156;2022-07-10T15:03:59;28.60;99.90
23087;DHT22;11712;51.134;4.156;2022-07-10T15:06:26;29.50;99.90
23087;DHT22;11712;51.134;4.156;2022-07-10T15:08:51;30.30;99.90
23087;DHT22;11712;51.134;4.156;2022-07-10T15:11:18;30.80;99.90
23087;DHT22;11712;51.134;4.156;2022-07-10T15:13:46;30.10;99.90
23087;DHT22;11712;51.134;4.156;2022-07-10T15:16:12;29.50;99.90
23087;DHT22;11712;51.134;4.156;2022-07-10T15:18:38;29.60;99.90
23087;DHT22;11712;51.134;4.156;2022-07-10T15:21:04;29.70;99.90
23087;DHT22;11712;51.134;4.156;2022-07-10T15:23:29;28.40;99.90
23087;DHT22;11712;51.134;4.156;2022-07-10T15:25:55;28.30;99.90
23087;DHT22;11712;51.134;4.156;2022-07-10T15:28:21;29.30;99.90
23087;DHT22;11712;51.134;4.156;2022-07-10T15:30:46;28.30;99.90
23087;DHT22;11712;51.134;4.156;2022-07-10T15:33:12;29.40;99.90
23087;DHT22;11712;51.134;4.156;2022-07-10T15:35:38;29.30;99.90
23087;DHT22;11712;51.134;4.156;2022-07-10T15:38:03;29.00;99.90
23087;DHT22;11712;51.134;4.156;2022-07-10T15:40:30;29.50;99.90
23087;DHT22;11712;51.134;4.156;2022-07-10T15:42:57;29.70;99.90
23087;DHT22;11712;51.134;4.156;2022-07-10T15:45:26;30.00;99.90
23087;DHT22;11712;51.134;4.156;2022-07-10T15:47:52;29.90;99.90
23087;DHT22;11712;51.134;4.156;2022-07-10T15:50:18;29.20;99.90
23087;DHT22;11712;51.134;4.156;2022-07-10T15:52:44;30.40;99.90
23087;DHT22;11712;51.134;4.156;2022-07-10T15:55:11;30.80;99.90
23087;DHT22;11712;51.134;4.156;2022-07-10T15:57:37;29.00;99.90
23087;DHT22;11712;51.134;4.156;2022-07-10T16:00:05;29.80;99.90
23087;DHT22;11712;51.134;4.156;2022-07-10T16:02:30;30.40;99.90
23087;DHT22;11712;51.134;4.156;2022-07-10T16:04:56;30.10;99.90
23087;DHT22;11712;51.134;4.156;2022-07-10T16:07:22;29.00;99.90
23087;DHT22;11712;51.134;4.156;2022-07-10T16:09:48;30.00;99.90